Time;durP1;ratioP1;P1;durP2;ratioP2;P2;SDS_P1;SDS_P2;PMS_P1;PMS_P2;Temp;Humidity;BMP_temperature;BMP_pressure;BME280_temperature;BME280_humidity;BME280_pressure;Samples;Min_cycle;Max_cycle;Signal;HPM_P1;HPM_P2
2022/04/29 00:01:22;;;;;;;;;;;;;;;5.28;85.73;100295.59;1635910;87;20177;-76
2022/04/29 00:03:59;;;;;;;;;;;;;;;5.24;85.89;100290.39;1613620;87;20269;-75
2022/04/29 00:06:36;;;;;;;;;;;;;;;5.19;86.08;100289.56;1633971;86;21130;-75
2022/04/29 00:09:02;;;;;;;;;;;;;;;5.15;86.32;100287.91;1658345;86;20165;-74
2022/04/29 00:11:31;;;;;;;;;;;;;;;5.11;86.81;100294.95;1663484;86;20094;-75
2022/04/29 00:14:05;;;;;;;;;;;;;;;5.09;87.09;100298.48;1635935;86;20162;-75
2022/04/29 00:16:47;;;;;;;;;;;;;;;5.04;87.13;100294.90;1637393;86;20209;-75
2022/04/29 00:19:09;;;;;;;;;;;;;;;5.01;87.39;100289.98;1660708;86;21183;-74
2022/04/29 00:21:37;;;;;;;;;;;;;;;5.01;87.80;100295.42;1660280;86;20119;-75
2022/04/29 00:24:09;;;;;;;;;;;;;;;4.98;87.76;100294.04;1661186;85;20216;-75
2022/04/29 00:26:41;;;;;;;;;;;;;;;4.95;87.78;100291.30;1659798;86;20185;-75
2022/04/29 00:29:12;;;;;;;;;;;;;;;4.92;87.77;100289.64;1663679;84;20122;-75
2022/04/29 00:31:47;;;;;;;;;;;;;;;4.89;87.56;100288.80;1678345;84;20560;-75
2022/04/29 00:34:21;;;;;;;;;;;;;;;4.83;87.38;100289.30;1663524;86;20118;-75
2022/04/29 00:36:44;;;;;;;;;;;;;;;4.75;87.63;100282.97;1662373;84;20094;-75
2022/04/29 00:39:14;;;;;;;;;;;;;;;4.69;87.57;100288.09;1677999;84;20106;-75
2022/04/29 00:41:45;;;;;;;;;;;;;;;4.64;87.46;100280.70;1645194;86;20449;-76
2022/04/29 00:44:12;;;;;;;;;;;;;;;4.61;87.47;100288.05;1636813;86;21075;-75
2022/04/29 00:46:45;;;;;;;;;;;;;;;4.55;87.85;100284.18;1613342;86;20437;-74
2022/04/29 00:49:17;;;;;;;;;;;;;;;4.48;88.21;100280.31;1647812;84;20106;-73
2022/04/29 00:51:53;;;;;;;;;;;;;;;4.43;88.34;100284.87;1605813;88;20135;-74
2022/04/29 00:54:29;;;;;;;;;;;;;;;4.36;88.39;100283.72;1635187;86;20105;-74
2022/04/29 00:57:02;;;;;;;;;;;;;;;4.32;88.65;100283.95;1618244;86;21800;-74
2022/04/29 00:59:40;;;;;;;;;;;;;;;4.26;88.96;100277.65;1621806;87;20092;-75
2022/04/29 01:02:12;;;;;;;;;;;;;;;4.20;88.87;100281.92;1635712;86;20126;-75
2022/04/29 01:04:59;;;;;;;;;;;;;;;4.13;88.47;100282.66;1640877;86;20126;-75
2022/04/29 01:07:29;;;;;;;;;;;;;;;4.08;88.15;100282.07;1640810;86;20118;-75
2022/04/29 01:10:00;;;;;;;;;;;;;;;4.03;87.67;100280.69;1637730;86;21638;-76
2022/04/29 01:12:28;;;;;;;;;;;;;;;3.99;87.35;100289.06;1637357;86;20177;-75
2022/04/29 01:15:03;;;;;;;;;;;;;;;3.95;87.16;100283.85;1617796;86;20102;-75
2022/04/29 01:17:36;;;;;;;;;;;;;;;3.90;87.41;100283.25;1658261;84;20097;-75
2022/04/29 01:20:08;;;;;;;;;;;;;;;3.86;87.97;100279.41;1644448;86;20094;-75
2022/04/29 01:22:34;;;;;;;;;;;;;;;3.84;88.38;100276.12;1642204;84;21225;-74
2022/04/29 01:25:09;;;;;;;;;;;;;;;3.82;88.81;100280.98;1650174;86;20090;-74
2022/04/29 01:27:35;;;;;;;;;;;;;;;3.78;89.17;100277.13;1636816;86;20194;-74
2022/04/29 01:30:08;;;;;;;;;;;;;;;3.76;89.44;100276.56;1625709;86;40004;-74
2022/04/29 01:32:37;;;;;;;;;;;;;;;3.73;89.39;100276.25;1652465;85;20127;-74
2022/04/29 01:35:10;;;;;;;;;;;;;;;3.72;89.48;100271.89;1640373;86;20106;-74
2022/04/29 01:37:38;;;;;;;;;;;;;;;3.75;89.37;100280.89;1649074;86;20167;-75
2022/04/29 01:40:09;;;;;;;;;;;;;;;3.74;89.02;100279.25;1649658;86;20090;-75
2022/04/29 01:42:37;;;;;;;;;;;;;;;3.70;88.88;100280.29;1647062;86;20147;-75
2022/04/29 01:45:12;;;;;;;;;;;;;;;3.68;89.19;100274.29;1634651;85;20126;-75
2022/04/29 01:47:57;;;;;;;;;;;;;;;3.67;89.41;100279.97;1627606;86;22043;-74
2022/04/29 01:50:48;;;;;;;;;;;;;;;3.62;89.57;100278.02;1645766;85;20139;-75
2022/04/29 01:53:21;;;;;;;;;;;;;;;3.55;89.77;100276.02;1655323;86;20106;-76
2022/04/29 01:55:50;;;;;;;;;;;;;;;3.47;90.04;100271.84;1648521;86;20115;-76
2022/04/29 01:58:18;;;;;;;;;;;;;;;3.42;90.59;100277.77;1641338;86;20441;-75
2022/04/29 02:00:50;;;;;;;;;;;;;;;3.37;91.18;100268.20;1642308;86;21267;-75
2022/04/29 02:03:23;;;;;;;;;;;;;;;3.31;91.56;100263.23;1651212;86;20153;-75
2022/04/29 02:05:59;;;;;;;;;;;;;;;3.26;91.70;100262.63;1649762;86;20090;-75
2022/04/29 02:08:26;;;;;;;;;;;;;;;3.21;91.63;100257.13;1622363;84;20129;-76
2022/04/29 02:10:53;;;;;;;;;;;;;;;3.15;91.75;100255.42;1644121;86;20121;-76
2022/04/29 02:13:26;;;;;;;;;;;;;;;3.12;92.01;100256.45;1648663;85;21160;-75
2022/04/29 02:16:01;;;;;;;;;;;;;;;3.07;92.18;100253.66;1648062;85;20318;-77
2022/04/29 02:18:29;;;;;;;;;;;;;;;3.02;92.39;100251.70;1639614;86;20159;-76
2022/04/29 02:21:02;;;;;;;;;;;;;;;2.97;92.65;100248.91;1622401;86;20589;-75
2022/04/29 02:23:34;;;;;;;;;;;;;;;2.93;92.91;100257.25;1642183;86;20134;-76
2022/04/29 02:26:01;;;;;;;;;;;;;;;2.92;93.25;100252.90;1637074;86;20483;-76
2022/04/29 02:28:35;;;;;;;;;;;;;;;2.94;93.54;100260.25;1598503;87;20464;-76
2022/04/29 02:31:02;;;;;;;;;;;;;;;2.94;93.26;100262.44;1628419;87;20135;-76
2022/04/29 02:33:35;;;;;;;;;;;;;;;2.87;92.87;100265.88;1620500;86;20440;-76
2022/04/29 02:36:07;;;;;;;;;;;;;;;2.79;92.70;100272.25;1617562;87;20104;-75
2022/04/29 02:38:44;;;;;;;;;;;;;;;2.68;92.85;100282.10;1623557;87;20124;-76
2022/04/29 02:41:08;;;;;;;;;;;;;;;2.65;93.61;100275.28;1570321;91;20252;-75
2022/04/29 02:43:42;;;;;;;;;;;;;;;2.67;93.86;100278.28;1586270;89;20158;-75
2022/04/29 02:46:08;;;;;;;;;;;;;;;2.67;94.09;100282.34;1622940;87;20092;-76
2022/04/29 02:48:37;;;;;;;;;;;;;;;2.70;94.25;100287.28;1605934;87;20423;-75
2022/04/29 02:51:11;;;;;;;;;;;;;;;2.72;94.05;100285.97;1636145;87;21180;-75
2022/04/29 02:53:51;;;;;;;;;;;;;;;2.74;94.11;100284.36;1636797;86;20471;-75
2022/04/29 02:56:13;;;;;;;;;;;;;;;2.78;94.20;100286.88;1616026;87;20470;-75
2022/04/29 02:59:13;;;;;;;;;;;;;;;2.79;94.20;100290.70;1632389;87;20108;-76
2022/04/29 03:01:33;;;;;;;;;;;;;;;2.80;94.19;100291.52;1624623;87;20177;-76
2022/04/29 03:04:07;;;;;;;;;;;;;;;2.79;94.44;100293.94;1638738;87;21801;-76
2022/04/29 03:06:42;;;;;;;;;;;;;;;2.77;94.47;100296.90;1629986;87;20132;-75
2022/04/29 03:09:07;;;;;;;;;;;;;;;2.76;94.60;100293.90;1624834;86;20151;-75
2022/04/29 03:11:34;;;;;;;;;;;;;;;2.77;94.80;100295.55;1615871;87;20395;-75
2022/04/29 03:14:01;;;;;;;;;;;;;;;2.79;95.11;100304.25;1635896;85;20137;-74
2022/04/29 03:16:37;;;;;;;;;;;;;;;2.90;95.50;100305.21;1639389;87;20127;-75
2022/04/29 03:19:03;;;;;;;;;;;;;;;3.06;95.64;100311.17;1607965;87;20160;-75
2022/04/29 03:21:33;;;;;;;;;;;;;;;3.20;95.50;100302.97;1611703;87;20107;-75
2022/04/29 03:24:06;;;;;;;;;;;;;;;3.34;95.10;100308.88;1634277;86;20167;-76
2022/04/29 03:26:36;;;;;;;;;;;;;;;3.46;94.79;100315.02;1661259;84;20212;-75
2022/04/29 03:29:05;;;;;;;;;;;;;;;3.59;94.53;100321.42;1660548;86;21173;-75
2022/04/29 03:31:39;;;;;;;;;;;;;;;3.72;94.06;100320.23;1661877;85;20126;-75
2022/04/29 03:34:14;;;;;;;;;;;;;;;3.87;93.45;100320.43;1657316;86;20434;-75
2022/04/29 03:37:01;;;;;;;;;;;;;;;4.02;92.76;100323.05;1661549;86;20089;-75
2022/04/29 03:39:14;;;;;;;;;;;;;;;4.14;92.15;100322.34;1653316;86;20497;-75
2022/04/29 03:41:41;;;;;;;;;;;;;;;4.26;91.68;100318.95;1664770;84;21148;-75
2022/04/29 03:44:13;;;;;;;;;;;;;;;4.38;90.98;100320.98;1661456;85;20126;-75
2022/04/29 03:46:42;;;;;;;;;;;;;;;4.52;90.44;100322.77;1665324;84;20126;-75
2022/04/29 03:52:16;;;;;;;;;;;;;;;4.75;89.60;100321.59;1662056;84;20106;-75
2022/04/29 03:54:47;;;;;;;;;;;;;;;4.89;88.94;100316.00;1666193;85;21282;-75
2022/04/29 03:57:14;;;;;;;;;;;;;;;4.99;88.36;100322.89;1661480;85;20165;-75
2022/04/29 03:59:49;;;;;;;;;;;;;;;5.08;87.88;100318.61;1663995;84;20165;-75
2022/04/29 04:02:19;;;;;;;;;;;;;;;5.19;87.43;100323.59;1640055;86;20174;-75
2022/04/29 04:04:47;;;;;;;;;;;;;;;5.26;86.66;100324.97;1663427;85;20189;-75
2022/04/29 04:07:19;;;;;;;;;;;;;;;5.37;86.62;100319.60;1642336;85;21809;-75
2022/04/29 04:09:50;;;;;;;;;;;;;;;5.44;86.38;100316.92;1601846;87;20169;-76
2022/04/29 04:12:25;;;;;;;;;;;;;;;5.54;85.76;100321.62;1612073;87;20454;-76
2022/04/29 04:15:00;;;;;;;;;;;;;;;5.62;85.49;100319.76;1581278;89;20982;-76
2022/04/29 04:17:29;;;;;;;;;;;;;;;5.74;84.89;100321.73;1586179;89;20214;-77
2022/04/29 04:20:00;;;;;;;;;;;;;;;5.84;84.35;100322.29;1621592;87;21308;-76
2022/04/29 04:22:28;;;;;;;;;;;;;;;5.94;84.10;100321.01;1627382;87;20128;-76
2022/04/29 04:24:59;;;;;;;;;;;;;;;6.05;83.80;100325.41;1634382;87;20092;-76
2022/04/29 04:27:26;;;;;;;;;;;;;;;6.18;83.38;100332.28;1632437;87;20092;-76
2022/04/29 04:29:59;;;;;;;;;;;;;;;6.31;82.90;100325.50;1634936;87;20080;-75
2022/04/29 04:32:26;;;;;;;;;;;;;;;6.44;82.24;100331.78;1636128;87;21130;-76
2022/04/29 04:35:01;;;;;;;;;;;;;;;6.55;81.31;100336.99;1609136;87;20448;-77
2022/04/29 04:37:35;;;;;;;;;;;;;;;6.68;80.89;100334.28;1610627;87;20132;-77
2022/04/29 04:40:06;;;;;;;;;;;;;;;6.83;80.84;100336.22;1634838;85;20420;-77
2022/04/29 04:42:53;;;;;;;;;;;;;;;6.99;80.23;100326.91;1633442;86;20148;-73
2022/04/29 04:45:26;;;;;;;;;;;;;;;7.19;79.13;100331.55;1634596;87;20096;-76
2022/04/29 04:48:08;;;;;;;;;;;;;;;7.33;78.25;100334.00;1610573;87;20108;-76
2022/04/29 04:50:37;;;;;;;;;;;;;;;7.45;76.98;100333.72;1605713;87;20200;-77
2022/04/29 04:53:08;;;;;;;;;;;;;;;7.56;76.70;100335.30;1581405;86;20201;-77
2022/04/29 04:55:43;;;;;;;;;;;;;;;7.68;76.34;100337.73;1649831;85;20150;-75
2022/04/29 04:58:11;;;;;;;;;;;;;;;7.77;75.87;100335.52;1656638;86;21233;-74
2022/04/29 05:00:43;;;;;;;;;;;;;;;7.86;75.57;100342.61;1653820;86;20154;-74
2022/04/29 05:03:17;;;;;;;;;;;;;;;7.94;74.36;100344.22;1626805;86;20560;-71
2022/04/29 05:05:57;;;;;;;;;;;;;;;8.00;73.64;100345.02;1651486;84;20461;-73
2022/04/29 05:08:27;;;;;;;;;;;;;;;8.05;73.27;100344.19;1628284;86;20195;-70
2022/04/29 05:10:56;;;;;;;;;;;;;;;8.09;73.79;100343.31;1647407;85;21209;-77
2022/04/29 05:13:23;;;;;;;;;;;;;;;8.15;72.38;100340.02;1639914;86;20157;-78
2022/04/29 05:15:57;;;;;;;;;;;;;;;8.20;72.21;100345.45;1609019;86;20486;-79
2022/04/29 05:18:31;;;;;;;;;;;;;;;8.27;72.16;100344.61;1637634;85;20121;-80
2022/04/29 05:21:14;;;;;;;;;;;;;;;8.37;72.21;100348.70;1658213;84;20229;-72
2022/04/29 05:23:42;;;;;;;;;;;;;;;8.47;71.58;100345.91;1656613;86;20103;-74
2022/04/29 05:26:32;;;;;;;;;;;;;;;8.57;71.57;100353.23;1650500;85;20102;-73
2022/04/29 05:29:21;;;;;;;;;;;;;;;8.67;71.40;100350.41;1614685;86;20867;-75
2022/04/29 05:31:57;;;;;;;;;;;;;;;8.79;71.06;100343.22;1651353;85;20150;-72
2022/04/29 05:34:43;;;;;;;;;;;;;;;8.91;70.99;100353.27;1642898;85;20097;-72
2022/04/29 05:37:41;;;;;;;;;;;;;;;9.08;71.57;100350.13;1615879;88;20455;-77
2022/04/29 05:43:13;;;;;;;;;;;;;;;9.50;70.75;100346.16;1605747;88;20105;-76
2022/04/29 05:45:30;;;;;;;;;;;;;;;9.70;69.86;100347.89;1628324;85;20449;-77
2022/04/29 05:47:57;;;;;;;;;;;;;;;9.85;68.74;100342.20;1655253;86;20094;-70
2022/04/29 05:50:32;;;;;;;;;;;;;;;10.03;67.94;100348.05;1670585;86;21159;-74
2022/04/29 05:53:07;;;;;;;;;;;;;;;10.21;67.59;100348.13;1667686;85;20189;-72
2022/04/29 05:55:40;;;;;;;;;;;;;;;10.37;66.04;100352.86;1664459;86;20105;-77
2022/04/29 05:58:11;;;;;;;;;;;;;;;10.50;66.34;100352.11;1644124;84;20150;-79
2022/04/29 06:00:47;;;;;;;;;;;;;;;10.66;66.30;100361.50;1644072;84;20118;-83
2022/04/29 06:03:13;;;;;;;;;;;;;;;10.83;65.69;100364.00;1645969;84;21042;-72
2022/04/29 06:05:39;;;;;;;;;;;;;;;11.00;63.93;100361.25;1613109;86;20148;-70
2022/04/29 06:08:12;;;;;;;;;;;;;;;11.14;63.12;100360.75;1595547;87;20099;-74
2022/04/29 06:10:43;;;;;;;;;;;;;;;11.31;60.04;100358.83;1633550;86;20445;-74
2022/04/29 06:13:12;;;;;;;;;;;;;;;11.46;60.39;100351.12;1625041;86;20152;-74
2022/04/29 06:15:44;;;;;;;;;;;;;;;11.59;61.79;100352.25;1646412;86;21183;-75
2022/04/29 06:18:28;;;;;;;;;;;;;;;11.76;60.60;100358.55;1623961;86;20256;-73
2022/04/29 06:20:57;;;;;;;;;;;;;;;11.89;58.17;100359.97;1604286;87;20212;-70
2022/04/29 06:23:40;;;;;;;;;;;;;;;11.99;58.38;100364.46;1601404;88;20150;-70
2022/04/29 06:26:08;;;;;;;;;;;;;;;12.07;59.00;100365.69;1607796;87;20497;-70
2022/04/29 06:28:36;;;;;;;;;;;;;;;12.12;58.27;100361.45;1616944;88;20132;-71
2022/04/29 06:31:08;;;;;;;;;;;;;;;12.19;56.98;100365.96;1658080;86;20118;-70
2022/04/29 06:33:58;;;;;;;;;;;;;;;12.28;56.96;100366.88;1617018;86;20203;-69
2022/04/29 06:36:27;;;;;;;;;;;;;;;12.45;57.81;100371.76;1634772;84;20131;-71
2022/04/29 06:38:57;;;;;;;;;;;;;;;12.61;56.74;100372.24;1634054;86;20170;-70
2022/04/29 06:41:44;;;;;;;;;;;;;;;12.72;56.29;100376.37;1639388;85;21170;-71
2022/04/29 06:44:12;;;;;;;;;;;;;;;12.86;57.36;100382.11;1623659;87;20165;-70
2022/04/29 06:46:50;;;;;;;;;;;;;;;12.97;56.88;100375.80;1631009;85;20106;-71
2022/04/29 06:49:39;;;;;;;;;;;;;;;13.06;56.66;100379.44;1598895;88;20143;-70
2022/04/29 06:52:23;;;;;;;;;;;;;;;13.20;55.14;100381.61;1618481;86;20488;-77
2022/04/29 06:54:57;;;;;;;;;;;;;;;13.32;54.65;100389.30;1615953;86;20190;-71
2022/04/29 06:57:31;;;;;;;;;;;;;;;13.44;53.08;100385.97;1646561;85;20544;-70
2022/04/29 07:00:01;;;;;;;;;;;;;;;13.57;52.89;100392.55;1637437;86;20122;-70
2022/04/29 07:02:34;;;;;;;;;;;;;;;13.66;53.41;100394.23;1652690;85;20441;-72
2022/04/29 07:05:03;;;;;;;;;;;;;;;13.81;52.79;100390.26;1662239;86;20098;-71
2022/04/29 07:07:34;;;;;;;;;;;;;;;13.95;53.17;100388.19;1637231;86;21936;-74
2022/04/29 07:10:03;;;;;;;;;;;;;;;14.09;53.13;100386.14;1644433;86;20814;-70
2022/04/29 07:12:53;;;;;;;;;;;;;;;14.25;52.63;100388.48;1634428;86;20130;-72
2022/04/29 07:15:18;;;;;;;;;;;;;;;14.41;50.21;100385.52;1655269;84;20160;-69
2022/04/29 07:17:47;;;;;;;;;;;;;;;14.53;47.41;100384.34;1661372;84;20472;-77
2022/04/29 07:20:22;;;;;;;;;;;;;;;14.61;48.44;100379.40;1672210;82;20137;-74
2022/04/29 07:22:53;;;;;;;;;;;;;;;14.74;47.46;100374.88;1663122;85;20157;-72
2022/04/29 07:25:24;;;;;;;;;;;;;;;14.86;46.80;100382.77;1648213;86;20178;-73
2022/04/29 07:27:53;;;;;;;;;;;;;;;14.94;44.76;100381.16;1615137;88;20810;-73
2022/04/29 07:30:29;;;;;;;;;;;;;;;14.96;44.55;100382.21;1658294;86;20106;-74
2022/04/29 07:33:05;;;;;;;;;;;;;;;15.02;45.12;100381.70;1657688;86;21362;-74
2022/04/29 07:41:45;;;;;;;;;;;;;;;15.32;43.68;100375.75;1644450;86;20132;-80
2022/04/29 07:44:16;;;;;;;;;;;;;;;15.45;43.94;100376.71;1624703;86;20125;-85
2022/04/29 07:46:47;;;;;;;;;;;;;;;15.66;41.82;100369.34;1656429;86;21654;-81
2022/04/29 07:49:27;;;;;;;;;;;;;;;15.80;42.83;100360.84;1533266;91;20217;-83
2022/04/29 07:51:58;;;;;;;;;;;;;;;16.04;41.37;100364.42;1659901;85;20138;-80
2022/04/29 07:54:31;;;;;;;;;;;;;;;16.38;42.58;100365.61;1660935;85;20142;-81
2022/04/29 07:57:02;;;;;;;;;;;;;;;16.78;40.62;100364.62;1662774;86;20176;-77
2022/04/29 07:59:31;;;;;;;;;;;;;;;16.99;36.77;100361.86;1655520;85;20200;-79
2022/04/29 08:02:01;;;;;;;;;;;;;;;17.09;37.73;100361.45;1632561;84;20090;-79
2022/04/29 08:04:38;;;;;;;;;;;;;;;17.21;39.80;100370.98;1635220;84;20167;-68
2022/04/29 08:07:07;;;;;;;;;;;;;;;17.37;36.98;100362.23;1659947;84;20442;-73
2022/04/29 08:09:35;;;;;;;;;;;;;;;17.55;38.53;100368.42;1658845;85;20200;-79
2022/04/29 08:12:07;;;;;;;;;;;;;;;17.84;38.22;100365.53;1661380;86;20117;-78
2022/04/29 08:14:42;;;;;;;;;;;;;;;18.14;34.72;100358.59;1664115;85;20145;-78
2022/04/29 08:17:33;;;;;;;;;;;;;;;18.32;34.05;100361.14;1661035;86;20102;-79
2022/04/29 08:20:02;;;;;;;;;;;;;;;18.50;32.36;100352.77;1637150;86;20141;-74
2022/04/29 08:22:39;;;;;;;;;;;;;;;18.77;35.82;100344.30;1662501;84;20105;-79
2022/04/29 08:25:17;;;;;;;;;;;;;;;19.13;34.63;100337.20;1637016;85;20106;-77
2022/04/29 08:27:46;;;;;;;;;;;;;;;19.35;31.74;100335.02;1663498;86;20228;-78
2022/04/29 08:30:16;;;;;;;;;;;;;;;19.37;32.79;100337.67;1660690;86;20138;-77
2022/04/29 08:32:50;;;;;;;;;;;;;;;19.35;33.41;100335.02;1661503;86;20101;-78
2022/04/29 08:35:28;;;;;;;;;;;;;;;19.44;30.94;100330.11;1661573;86;20487;-76
2022/04/29 08:37:56;;;;;;;;;;;;;;;19.31;31.21;100332.14;1658732;85;21811;-87
2022/04/29 08:40:29;;;;;;;;;;;;;;;19.27;32.90;100327.64;1663750;86;20432;-80
2022/04/29 08:43:03;;;;;;;;;;;;;;;19.26;30.85;100328.80;1658485;86;20102;-80
2022/04/29 08:45:31;;;;;;;;;;;;;;;19.44;31.83;100324.53;1628327;86;20118;-79
2022/04/29 08:48:20;;;;;;;;;;;;;;;19.49;31.35;100328.45;1598580;88;20158;-77
2022/04/29 08:50:51;;;;;;;;;;;;;;;19.13;31.25;100328.05;1611088;87;20098;-79
2022/04/29 08:53:19;;;;;;;;;;;;;;;18.75;32.54;100327.15;1634648;86;20090;-80
2022/04/29 08:58:43;;;;;;;;;;;;;;;18.15;33.61;100324.67;1651050;85;20102;-74
2022/04/29 09:01:20;;;;;;;;;;;;;;;17.77;33.39;100329.98;1580950;86;20120;-74
2022/04/29 09:03:47;;;;;;;;;;;;;;;17.49;34.63;100324.80;1653107;85;21172;-81
2022/04/29 09:06:17;;;;;;;;;;;;;;;17.33;34.29;100328.02;1612553;86;20149;-78
2022/04/29 09:08:44;;;;;;;;;;;;;;;17.26;33.55;100328.58;1651873;85;20154;-79
2022/04/29 09:11:14;;;;;;;;;;;;;;;17.21;33.59;100326.59;1659381;84;20245;-78
2022/04/29 09:13:43;;;;;;;;;;;;;;;17.03;32.78;100323.97;1615283;85;20237;-81
2022/04/29 09:16:18;;;;;;;;;;;;;;;16.91;33.50;100321.14;1630021;86;20125;-73
2022/04/29 09:18:53;;;;;;;;;;;;;;;16.91;32.96;100325.88;1587004;88;20194;-73
2022/04/29 09:21:29;;;;;;;;;;;;;;;17.07;32.31;100317.17;1592178;87;20171;-78
2022/04/29 09:24:10;;;;;;;;;;;;;;;17.22;32.73;100314.34;1618718;86;20195;-77
2022/04/29 09:26:38;;;;;;;;;;;;;;;17.34;31.84;100309.61;1612695;88;20164;-72
2022/04/29 09:29:28;;;;;;;;;;;;;;;17.36;31.70;100311.47;1638005;85;21171;-70
2022/04/29 09:32:03;;;;;;;;;;;;;;;17.31;31.76;100305.35;1633710;85;20102;-68
2022/04/29 09:34:54;;;;;;;;;;;;;;;17.25;31.84;100303.37;1651146;85;20442;-70
2022/04/29 09:37:30;;;;;;;;;;;;;;;17.29;31.44;100302.92;1637225;86;20134;-70
2022/04/29 09:40:00;;;;;;;;;;;;;;;17.38;32.14;100298.06;1647429;85;20429;-69
2022/04/29 09:42:27;;;;;;;;;;;;;;;17.53;33.93;100298.56;1651770;84;21320;-70
2022/04/29 09:44:58;;;;;;;;;;;;;;;17.67;34.78;100301.86;1659716;85;20496;-71
2022/04/29 09:47:30;;;;;;;;;;;;;;;17.76;34.46;100297.02;1644992;86;20110;-70
2022/04/29 09:50:01;;;;;;;;;;;;;;;17.84;34.71;100299.45;1646367;86;20247;-69
2022/04/29 09:52:31;;;;;;;;;;;;;;;17.81;34.12;100294.81;1635358;86;20155;-72
2022/04/29 09:55:14;;;;;;;;;;;;;;;17.68;34.59;100294.57;1635470;85;21087;-72
2022/04/29 09:58:01;;;;;;;;;;;;;;;17.56;35.48;100292.32;1647074;84;20134;-66
2022/04/29 10:00:32;;;;;;;;;;;;;;;17.41;33.55;100290.44;1629980;86;20106;-66
2022/04/29 10:03:07;;;;;;;;;;;;;;;17.23;35.04;100289.02;1646916;86;20108;-68
2022/04/29 10:05:34;;;;;;;;;;;;;;;17.06;35.27;100290.00;1637121;86;20097;-68
2022/04/29 10:08:07;;;;;;;;;;;;;;;16.90;34.90;100291.78;1622451;87;21300;-68
2022/04/29 10:10:45;;;;;;;;;;;;;;;16.86;35.73;100298.35;1610487;87;20093;-68
2022/04/29 10:13:11;;;;;;;;;;;;;;;16.87;35.80;100293.04;1627314;87;20242;-68
2022/04/29 10:15:46;;;;;;;;;;;;;;;16.89;35.92;100291.55;1636647;86;20463;-69
2022/04/29 10:21:22;;;;;;;;;;;;;;;17.19;36.36;100291.44;1596015;89;21168;-68
2022/04/29 10:24:01;;;;;;;;;;;;;;;17.80;36.52;100287.64;1611190;87;20155;-70
2022/04/29 10:26:30;;;;;;;;;;;;;;;18.39;34.91;100272.42;1595785;87;20524;-67
2022/04/29 10:28:56;;;;;;;;;;;;;;;18.66;34.12;100281.40;1635970;86;20130;-67
2022/04/29 10:31:27;;;;;;;;;;;;;;;18.60;33.10;100281.96;1644616;86;20129;-67
2022/04/29 10:33:58;;;;;;;;;;;;;;;18.32;30.69;100277.18;1621442;85;21181;-67
2022/04/29 10:36:29;;;;;;;;;;;;;;;18.17;30.97;100279.86;1624739;87;20147;-67
2022/04/29 10:39:00;;;;;;;;;;;;;;;18.20;31.49;100278.58;1619344;86;20200;-69
2022/04/29 10:41:31;;;;;;;;;;;;;;;18.12;33.49;100280.91;1662764;84;20117;-74
2022/04/29 10:44:08;;;;;;;;;;;;;;;17.96;33.64;100272.46;1640440;86;20424;-68
2022/04/29 10:46:39;;;;;;;;;;;;;;;17.79;33.97;100286.59;1633951;87;21120;-76
2022/04/29 10:49:26;;;;;;;;;;;;;;;17.59;35.15;100278.56;1634699;86;20439;-71
2022/04/29 10:52:26;;;;;;;;;;;;;;;17.38;34.60;100283.38;1658230;85;20129;-69
2022/04/29 10:55:01;;;;;;;;;;;;;;;17.14;34.70;100280.79;1629996;85;20176;-70
2022/04/29 10:57:51;;;;;;;;;;;;;;;17.00;35.36;100280.84;1630394;86;20143;-71
2022/04/29 11:00:25;;;;;;;;;;;;;;;16.92;36.10;100275.62;1657917;85;21204;-69
2022/04/29 11:03:15;;;;;;;;;;;;;;;16.88;35.79;100276.06;1653690;86;20102;-70
2022/04/29 11:05:45;;;;;;;;;;;;;;;16.89;36.49;100279.07;1616727;86;20139;-69
2022/04/29 11:08:13;;;;;;;;;;;;;;;16.83;35.66;100279.05;1657169;86;20158;-71
2022/04/29 11:10:58;;;;;;;;;;;;;;;16.77;36.40;100275.66;1658315;86;20472;-70
2022/04/29 11:13:30;;;;;;;;;;;;;;;16.80;36.64;100274.17;1655024;85;21842;-70
2022/04/29 11:16:14;;;;;;;;;;;;;;;16.82;36.92;100270.48;1655731;84;20170;-70
2022/04/29 11:19:22;;;;;;;;;;;;;;;16.82;36.57;100273.26;1656558;84;20162;-69
2022/04/29 11:24:53;;;;;;;;;;;;;;;17.10;35.70;100265.17;1668613;84;20170;-69
2022/04/29 11:27:27;;;;;;;;;;;;;;;17.69;35.28;100255.93;1658142;84;21292;-71
2022/04/29 11:30:01;;;;;;;;;;;;;;;18.37;35.55;100251.12;1640956;86;20430;-72
2022/04/29 11:32:29;;;;;;;;;;;;;;;19.04;33.16;100244.74;1637257;85;20147;-71
2022/04/29 11:35:06;;;;;;;;;;;;;;;19.43;32.43;100242.98;1625622;86;20429;-71
2022/04/29 11:37:37;;;;;;;;;;;;;;;19.74;34.09;100235.80;1660102;86;20110;-71
2022/04/29 11:40:12;;;;;;;;;;;;;;;20.10;30.82;100230.50;1638159;84;20166;-71
2022/04/29 11:42:40;;;;;;;;;;;;;;;20.29;30.58;100224.94;1624295;86;20133;-71
2022/04/29 11:45:08;;;;;;;;;;;;;;;20.44;31.84;100229.69;1615518;86;20504;-70
2022/04/29 11:47:41;;;;;;;;;;;;;;;20.46;31.55;100227.92;1636615;86;20167;-70
2022/04/29 11:50:14;;;;;;;;;;;;;;;20.52;28.96;100218.69;1627293;86;20142;-70
2022/04/29 11:52:40;;;;;;;;;;;;;;;20.51;28.54;100215.67;1639570;86;21127;-70
2022/04/29 11:55:13;;;;;;;;;;;;;;;20.62;27.30;100215.31;1635484;86;20147;-70
2022/04/29 11:57:49;;;;;;;;;;;;;;;20.65;27.68;100211.20;1642580;85;20147;-70
2022/04/29 12:00:28;;;;;;;;;;;;;;;20.78;30.59;100204.08;1645039;86;20277;-70
2022/04/29 12:02:55;;;;;;;;;;;;;;;21.17;31.05;100202.81;1643031;86;20233;-70
2022/04/29 12:05:23;;;;;;;;;;;;;;;21.62;30.59;100195.02;1646380;86;21255;-70
2022/04/29 12:07:52;;;;;;;;;;;;;;;21.87;30.82;100195.42;1646256;86;20446;-70
2022/04/29 12:10:39;;;;;;;;;;;;;;;21.82;28.94;100202.73;1631598;86;20131;-70
2022/04/29 12:13:05;;;;;;;;;;;;;;;21.37;29.43;100198.80;1645892;85;20174;-70
2022/04/29 12:15:35;;;;;;;;;;;;;;;21.24;29.51;100193.80;1647041;86;20150;-66
2022/04/29 12:18:06;;;;;;;;;;;;;;;21.39;30.92;100197.83;1638755;86;21187;-66
2022/04/29 12:20:32;;;;;;;;;;;;;;;21.36;29.14;100193.61;1639533;86;20094;-67
2022/04/29 12:23:19;;;;;;;;;;;;;;;21.07;27.42;100186.09;1642536;85;20126;-67
2022/04/29 12:25:54;;;;;;;;;;;;;;;20.48;27.12;100192.70;1679075;83;20096;-66
2022/04/29 12:28:26;;;;;;;;;;;;;;;19.94;29.05;100183.74;1661226;85;20118;-67
2022/04/29 12:36:48;;;;;;;;;;;;;;;19.20;30.50;100177.14;1621584;86;20150;-67
2022/04/29 12:39:24;;;;;;;;;;;;;;;18.94;29.68;100186.83;1651182;86;20149;-67
2022/04/29 12:41:59;;;;;;;;;;;;;;;18.82;29.30;100178.55;1645665;86;20114;-66
2022/04/29 12:47:49;;;;;;;;;;;;;;;18.77;27.92;100173.24;1588660;88;20160;-67
2022/04/29 12:50:45;;;;;;;;;;;;;;;18.87;29.94;100168.55;1640365;87;20169;-67
2022/04/29 12:53:31;;;;;;;;;;;;;;;19.39;30.20;100166.10;1602589;88;20465;-67
2022/04/29 12:55:56;;;;;;;;;;;;;;;20.17;30.94;100167.95;1622262;88;20190;-68
2022/04/29 12:58:31;;;;;;;;;;;;;;;20.93;27.86;100159.89;1620050;88;21168;-67
2022/04/29 13:01:05;;;;;;;;;;;;;;;21.40;29.49;100163.73;1601584;88;20154;-68
2022/04/29 13:03:38;;;;;;;;;;;;;;;21.96;29.09;100162.98;1601756;88;20134;-67
2022/04/29 13:06:13;;;;;;;;;;;;;;;22.42;27.68;100155.25;1601229;88;20129;-68
2022/04/29 13:08:48;;;;;;;;;;;;;;;22.54;27.51;100159.77;1605694;88;20119;-67
2022/04/29 13:11:19;;;;;;;;;;;;;;;22.39;25.98;100154.61;1585219;88;20166;-67
2022/04/29 13:13:47;;;;;;;;;;;;;;;22.04;27.03;100154.34;1609048;87;20167;-67
2022/04/29 13:16:21;;;;;;;;;;;;;;;21.67;26.92;100153.39;1624307;88;20156;-67
2022/04/29 13:18:53;;;;;;;;;;;;;;;21.10;27.13;100158.02;1629786;88;20164;-67
2022/04/29 13:21:17;;;;;;;;;;;;;;;20.56;27.23;100157.62;1626626;87;20120;-67
2022/04/29 13:23:48;;;;;;;;;;;;;;;20.05;26.87;100161.11;1624328;88;21889;-67
2022/04/29 13:26:21;;;;;;;;;;;;;;;19.56;28.27;100161.59;1624510;87;20125;-67
2022/04/29 13:28:51;;;;;;;;;;;;;;;19.16;29.89;100159.55;1631476;86;20113;-67
2022/04/29 13:31:24;;;;;;;;;;;;;;;18.88;28.96;100164.61;1639095;85;20086;-67
2022/04/29 13:33:49;;;;;;;;;;;;;;;18.67;30.76;100162.63;1628576;87;20137;-67
2022/04/29 13:36:18;;;;;;;;;;;;;;;18.45;30.45;100167.58;1663659;85;21308;-67
2022/04/29 13:38:50;;;;;;;;;;;;;;;18.28;33.10;100169.26;1662954;85;20142;-68
2022/04/29 13:41:18;;;;;;;;;;;;;;;18.22;34.35;100170.67;1654634;85;20106;-68